sensor_id;sensor_type;location;lat;lon;timestamp;pressure;altitude;pressure_sealevel;temperature
42119;BMP280;27783;42.782;23.274;2024-03-25T00:00:31;94302.09;;;4.46
42119;BMP280;27783;42.782;23.274;2024-03-25T00:02:58;94308.06;;;4.39
42119;BMP280;27783;42.782;23.274;2024-03-25T00:05:41;94313.63;;;4.24
42119;BMP280;27783;42.782;23.274;2024-03-25T00:08:09;94316.97;;;4.28
42119;BMP280;27783;42.782;23.274;2024-03-25T00:10:34;94319.22;;;4.26
42119;BMP280;27783;42.782;23.274;2024-03-25T00:13:03;94303.19;;;4.14
42119;BMP280;27783;42.782;23.274;2024-03-25T00:15:30;94300.56;;;4.11
42119;BMP280;27783;42.782;23.274;2024-03-25T00:17:57;94298.69;;;4.01
42119;BMP280;27783;42.782;23.274;2024-03-25T00:20:23;94287.53;;;4.00
42119;BMP280;27783;42.782;23.274;2024-03-25T00:22:50;94287.13;;;3.95
42119;BMP280;27783;42.782;23.274;2024-03-25T00:25:15;94270.38;;;3.96
42119;BMP280;27783;42.782;23.274;2024-03-25T00:27:42;94279.72;;;4.04
42119;BMP280;27783;42.782;23.274;2024-03-25T00:37:16;94263.31;;;4.03
42119;BMP280;27783;42.782;23.274;2024-03-25T01:50:39;94284.88;;;3.90
42119;BMP280;27783;42.782;23.274;2024-03-25T01:53:05;94274.47;;;3.90
42119;BMP280;27783;42.782;23.274;2024-03-25T01:55:34;94268.91;;;3.88
42119;BMP280;27783;42.782;23.274;2024-03-25T01:58:01;94267.75;;;3.86
42119;BMP280;27783;42.782;23.274;2024-03-25T02:00:27;94270.00;;;3.87
42119;BMP280;27783;42.782;23.274;2024-03-25T02:02:53;94280.78;;;3.82
42119;BMP280;27783;42.782;23.274;2024-03-25T02:05:19;94275.94;;;3.78
42119;BMP280;27783;42.782;23.274;2024-03-25T02:07:45;94279.66;;;3.83
42119;BMP280;27783;42.782;23.274;2024-03-25T02:10:12;94291.56;;;3.74
42119;BMP280;27783;42.782;23.274;2024-03-25T02:12:43;94286.34;;;3.74
42119;BMP280;27783;42.782;23.274;2024-03-25T02:15:10;94281.13;;;3.74
42119;BMP280;27783;42.782;23.274;2024-03-25T02:17:36;94282.97;;;3.67
42119;BMP280;27783;42.782;23.274;2024-03-25T02:20:05;94278.13;;;3.72
42119;BMP280;27783;42.782;23.274;2024-03-25T02:22:33;94275.16;;;3.74
42119;BMP280;27783;42.782;23.274;2024-03-25T02:24:59;94272.91;;;3.69
42119;BMP280;27783;42.782;23.274;2024-03-25T02:27:25;94268.47;;;3.69
42119;BMP280;27783;42.782;23.274;2024-03-25T02:29:53;94272.19;;;3.68
42119;BMP280;27783;42.782;23.274;2024-03-25T02:32:18;94269.94;;;3.67
42119;BMP280;27783;42.782;23.274;2024-03-25T02:34:50;94286.31;;;3.67
42119;BMP280;27783;42.782;23.274;2024-03-25T02:37:15;94285.91;;;3.62
42119;BMP280;27783;42.782;23.274;2024-03-25T02:39:41;94287.44;;;3.70
42119;BMP280;27783;42.782;23.274;2024-03-25T02:42:06;94283.72;;;3.67
42119;BMP280;27783;42.782;23.274;2024-03-25T02:44:32;94282.97;;;3.67
42119;BMP280;27783;42.782;23.274;2024-03-25T02:46:58;94284.09;;;3.73
42119;BMP280;27783;42.782;23.274;2024-03-25T02:49:24;94282.63;;;3.72
42119;BMP280;27783;42.782;23.274;2024-03-25T02:51:50;94281.09;;;3.64
42119;BMP280;27783;42.782;23.274;2024-03-25T02:54:15;94278.88;;;3.69
42119;BMP280;27783;42.782;23.274;2024-03-25T02:56:41;94300.44;;;3.66
42119;BMP280;27783;42.782;23.274;2024-03-25T02:59:06;94307.53;;;3.73
42119;BMP280;27783;42.782;23.274;2024-03-25T03:01:32;94299.34;;;3.64
42119;BMP280;27783;42.782;23.274;2024-03-25T03:03:57;94301.19;;;3.67
42119;BMP280;27783;42.782;23.274;2024-03-25T03:06:23;94300.84;;;3.65
42119;BMP280;27783;42.782;23.274;2024-03-25T03:08:48;94293.72;;;3.62
42119;BMP280;27783;42.782;23.274;2024-03-25T03:11:13;94301.16;;;3.57
42119;BMP280;27783;42.782;23.274;2024-03-25T03:13:39;94301.53;;;3.62
42119;BMP280;27783;42.782;23.274;2024-03-25T03:16:04;94307.53;;;3.69
42119;BMP280;27783;42.782;23.274;2024-03-25T03:18:30;94308.28;;;3.70
42119;BMP280;27783;42.782;23.274;2024-03-25T03:20:55;94301.16;;;3.60
42119;BMP280;27783;42.782;23.274;2024-03-25T03:23:22;94307.91;;;3.65
42119;BMP280;27783;42.782;23.274;2024-03-25T03:25:47;94298.94;;;3.62
42119;BMP280;27783;42.782;23.274;2024-03-25T03:28:13;94322.03;;;3.64
42119;BMP280;27783;42.782;23.274;2024-03-25T03:30:40;94325.38;;;3.64
42119;BMP280;27783;42.782;23.274;2024-03-25T03:33:05;94336.88;;;3.60
42119;BMP280;27783;42.782;23.274;2024-03-25T03:35:33;94339.16;;;3.65
42119;BMP280;27783;42.782;23.274;2024-03-25T03:37:58;94342.84;;;3.64
42119;BMP280;27783;42.782;23.274;2024-03-25T03:40:23;94332.44;;;3.60
42119;BMP280;27783;42.782;23.274;2024-03-25T03:42:49;94338.38;;;3.57
42119;BMP280;27783;42.782;23.274;2024-03-25T03:45:14;94348.81;;;3.61
42119;BMP280;27783;42.782;23.274;2024-03-25T03:47:39;94356.22;;;3.62
42119;BMP280;27783;42.782;23.274;2024-03-25T03:50:06;94358.84;;;3.55
42119;BMP280;27783;42.782;23.274;2024-03-25T03:52:32;94349.16;;;3.63
42119;BMP280;27783;42.782;23.274;2024-03-25T03:54:58;94348.41;;;3.62
42119;BMP280;27783;42.782;23.274;2024-03-25T03:57:23;94344.38;;;3.65
42119;BMP280;27783;42.782;23.274;2024-03-25T03:59:51;94341.00;;;3.64
42119;BMP280;27783;42.782;23.274;2024-03-25T04:02:16;94344.00;;;3.69
42119;BMP280;27783;42.782;23.274;2024-03-25T04:04:41;94360.75;;;3.68
42119;BMP280;27783;42.782;23.274;2024-03-25T04:07:07;94361.47;;;3.69
42119;BMP280;27783;42.782;23.274;2024-03-25T04:09:32;94368.97;;;3.74
42119;BMP280;27783;42.782;23.274;2024-03-25T04:11:58;94377.91;;;3.80
42119;BMP280;27783;42.782;23.274;2024-03-25T04:14:23;94384.94;;;3.76
42119;BMP280;27783;42.782;23.274;2024-03-25T04:16:48;94393.53;;;3.76
42119;BMP280;27783;42.782;23.274;2024-03-25T04:19:14;94386.50;;;3.90
42119;BMP280;27783;42.782;23.274;2024-03-25T04:21:39;94382.41;;;3.89
42119;BMP280;27783;42.782;23.274;2024-03-25T04:24:05;94387.22;;;3.81
42119;BMP280;27783;42.782;23.274;2024-03-25T04:26:31;94387.63;;;3.89
42119;BMP280;27783;42.782;23.274;2024-03-25T04:28:56;94400.66;;;3.89
42119;BMP280;27783;42.782;23.274;2024-03-25T04:31:22;94401.03;;;3.91
42119;BMP280;27783;42.782;23.274;2024-03-25T04:33:47;94393.22;;;3.91
42119;BMP280;27783;42.782;23.274;2024-03-25T04:36:13;94390.25;;;3.96
42119;BMP280;27783;42.782;23.274;2024-03-25T04:38:39;94391.34;;;3.95
42119;BMP280;27783;42.782;23.274;2024-03-25T04:41:04;94413.69;;;3.89
42119;BMP280;27783;42.782;23.274;2024-03-25T04:43:30;94426.38;;;3.94
42119;BMP280;27783;42.782;23.274;2024-03-25T04:45:55;94434.97;;;3.98
42119;BMP280;27783;42.782;23.274;2024-03-25T04:48:20;94442.00;;;3.94
42119;BMP280;27783;42.782;23.274;2024-03-25T04:50:46;94449.06;;;3.90
42119;BMP280;27783;42.782;23.274;2024-03-25T04:53:12;94443.50;;;3.98
42119;BMP280;27783;42.782;23.274;2024-03-25T04:55:37;94451.00;;;4.07
42119;BMP280;27783;42.782;23.274;2024-03-25T04:58:02;94457.72;;;4.08
42119;BMP280;27783;42.782;23.274;2024-03-25T05:00:28;94448.78;;;4.12
42119;BMP280;27783;42.782;23.274;2024-03-25T05:02:53;94442.06;;;4.04
42119;BMP280;27783;42.782;23.274;2024-03-25T05:05:19;94443.53;;;4.09
42119;BMP280;27783;42.782;23.274;2024-03-25T05:07:44;94441.31;;;4.07
42119;BMP280;27783;42.782;23.274;2024-03-25T05:10:09;94435.78;;;4.19
42119;BMP280;27783;42.782;23.274;2024-03-25T05:12:36;94447.34;;;4.21
42119;BMP280;27783;42.782;23.274;2024-03-25T05:15:01;94433.88;;;4.13
42119;BMP280;27783;42.782;23.274;2024-03-25T05:17:27;94442.13;;;4.18
42119;BMP280;27783;42.782;23.274;2024-03-25T05:19:52;94444.38;;;4.26
42119;BMP280;27783;42.782;23.274;2024-03-25T05:22:17;94443.63;;;4.26
42119;BMP280;27783;42.782;23.274;2024-03-25T05:24:43;94451.09;;;4.31
42119;BMP280;27783;42.782;23.274;2024-03-25T05:27:08;94457.44;;;4.36
42119;BMP280;27783;42.782;23.274;2024-03-25T05:29:34;94454.03;;;4.26
42119;BMP280;27783;42.782;23.274;2024-03-25T05:32:01;94463.75;;;4.32
42119;BMP280;27783;42.782;23.274;2024-03-25T05:34:27;94454.81;;;4.33
42119;BMP280;27783;42.782;23.274;2024-03-25T05:36:53;94458.56;;;4.35
42119;BMP280;27783;42.782;23.274;2024-03-25T05:39:19;94464.88;;;4.28
42119;BMP280;27783;42.782;23.274;2024-03-25T05:41:45;94477.94;;;4.31
42119;BMP280;27783;42.782;23.274;2024-03-25T05:44:10;94472.00;;;4.41
42119;BMP280;27783;42.782;23.274;2024-03-25T05:46:36;94467.53;;;4.45
42119;BMP280;27783;42.782;23.274;2024-03-25T05:49:04;94467.94;;;4.53
42119;BMP280;27783;42.782;23.274;2024-03-25T05:51:30;94487.34;;;4.66
42119;BMP280;27783;42.782;23.274;2024-03-25T05:53:56;94492.94;;;4.75
42119;BMP280;27783;42.782;23.274;2024-03-25T05:56:21;94491.47;;;4.74
42119;BMP280;27783;42.782;23.274;2024-03-25T05:58:47;94489.97;;;4.73
42119;BMP280;27783;42.782;23.274;2024-03-25T06:01:13;94492.94;;;4.75
42119;BMP280;27783;42.782;23.274;2024-03-25T06:03:39;94489.25;;;4.82
42119;BMP280;27783;42.782;23.274;2024-03-25T06:06:05;94497.84;;;4.93
42119;BMP280;27783;42.782;23.274;2024-03-25T06:08:30;94489.31;;;5.10
42119;BMP280;27783;42.782;23.274;2024-03-25T06:11:00;94510.56;;;5.15
42119;BMP280;27783;42.782;23.274;2024-03-25T06:13:26;94505.34;;;5.25
42119;BMP280;27783;42.782;23.274;2024-03-25T06:15:52;94513.19;;;5.29
42119;BMP280;27783;42.782;23.274;2024-03-25T06:18:18;94516.19;;;5.44
42119;BMP280;27783;42.782;23.274;2024-03-25T06:20:43;94518.06;;;5.50
42119;BMP280;27783;42.782;23.274;2024-03-25T06:23:08;94519.19;;;5.56
42119;BMP280;27783;42.782;23.274;2024-03-25T06:25:35;94519.16;;;5.60
42119;BMP280;27783;42.782;23.274;2024-03-25T06:28:03;94524.81;;;5.65
42119;BMP280;27783;42.782;23.274;2024-03-25T06:30:28;94527.78;;;5.94
42119;BMP280;27783;42.782;23.274;2024-03-25T06:33:12;94532.56;;;6.26
42119;BMP280;27783;42.782;23.274;2024-03-25T06:35:56;94540.75;;;6.42
42119;BMP280;27783;42.782;23.274;2024-03-25T06:38:22;94541.16;;;6.33
42119;BMP280;27783;42.782;23.274;2024-03-25T06:40:47;94538.81;;;6.59
42119;BMP280;27783;42.782;23.274;2024-03-25T06:43:13;94532.47;;;6.53
42119;BMP280;27783;42.782;23.274;2024-03-25T06:45:39;94537.97;;;6.86
42119;BMP280;27783;42.782;23.274;2024-03-25T06:48:05;94549.63;;;6.75
42119;BMP280;27783;42.782;23.274;2024-03-25T06:50:30;94553.66;;;6.86
42119;BMP280;27783;42.782;23.274;2024-03-25T06:52:56;94563.25;;;7.16
42119;BMP280;27783;42.782;23.274;2024-03-25T06:55:21;94562.78;;;7.31
42119;BMP280;27783;42.782;23.274;2024-03-25T06:57:48;94564.81;;;7.66
42119;BMP280;27783;42.782;23.274;2024-03-25T07:00:13;94566.94;;;7.25
42119;BMP280;27783;42.782;23.274;2024-03-25T07:02:39;94563.38;;;7.59
42119;BMP280;27783;42.782;23.274;2024-03-25T07:05:06;94563.97;;;7.80
42119;BMP280;27783;42.782;23.274;2024-03-25T07:07:31;94561.75;;;7.75
42119;BMP280;27783;42.782;23.274;2024-03-25T07:09:57;94567.28;;;7.83
42119;BMP280;27783;42.782;23.274;2024-03-25T07:12:23;94574.72;;;7.99
42119;BMP280;27783;42.782;23.274;2024-03-25T07:14:48;94575.53;;;7.85
42119;BMP280;27783;42.782;23.274;2024-03-25T07:17:14;94587.16;;;7.81
42119;BMP280;27783;42.782;23.274;2024-03-25T07:19:39;94594.78;;;7.65
42119;BMP280;27783;42.782;23.274;2024-03-25T07:22:05;94581.38;;;8.10
42119;BMP280;27783;42.782;23.274;2024-03-25T07:24:30;94589.91;;;7.64
42119;BMP280;27783;42.782;23.274;2024-03-25T07:26:55;94597.19;;;7.40
42119;BMP280;27783;42.782;23.274;2024-03-25T07:29:21;94595.47;;;7.76
42119;BMP280;27783;42.782;23.274;2024-03-25T07:31:46;94590.81;;;8.40
42119;BMP280;27783;42.782;23.274;2024-03-25T07:34:12;94587.47;;;8.39
42119;BMP280;27783;42.782;23.274;2024-03-25T07:36:38;94585.72;;;8.66
42119;BMP280;27783;42.782;23.274;2024-03-25T07:39:04;94585.66;;;8.69
42119;BMP280;27783;42.782;23.274;2024-03-25T07:41:31;94581.88;;;8.70
42119;BMP280;27783;42.782;23.274;2024-03-25T07:43:57;94591.09;;;8.52
42119;BMP280;27783;42.782;23.274;2024-03-25T07:46:22;94583.47;;;9.26
42119;BMP280;27783;42.782;23.274;2024-03-25T07:48:48;94579.00;;;8.61
42119;BMP280;27783;42.782;23.274;2024-03-25T07:51:13;94592.19;;;8.54
42119;BMP280;27783;42.782;23.274;2024-03-25T07:53:38;94590.47;;;9.35
42119;BMP280;27783;42.782;23.274;2024-03-25T07:56:04;94580.16;;;9.77
42119;BMP280;27783;42.782;23.274;2024-03-25T07:58:30;94597.78;;;9.25
42119;BMP280;27783;42.782;23.274;2024-03-25T08:00:55;94591.09;;;9.46
42119;BMP280;27783;42.782;23.274;2024-03-25T08:03:21;94597.25;;;9.62
42119;BMP280;27783;42.782;23.274;2024-03-25T08:05:47;94598.13;;;8.94
42119;BMP280;27783;42.782;23.274;2024-03-25T08:08:13;94602.19;;;8.66
42119;BMP280;27783;42.782;23.274;2024-03-25T08:10:38;94604.47;;;8.97
42119;BMP280;27783;42.782;23.274;2024-03-25T08:13:03;94609.97;;;9.09
42119;BMP280;27783;42.782;23.274;2024-03-25T08:15:29;94615.06;;;9.22
42119;BMP280;27783;42.782;23.274;2024-03-25T08:17:55;94620.31;;;9.51
42119;BMP280;27783;42.782;23.274;2024-03-25T08:20:20;94626.22;;;9.59
42119;BMP280;27783;42.782;23.274;2024-03-25T08:22:45;94615.06;;;9.22
42119;BMP280;27783;42.782;23.274;2024-03-25T08:25:11;94619.78;;;9.05
42119;BMP280;27783;42.782;23.274;2024-03-25T08:27:37;94623.94;;;9.02
42119;BMP280;27783;42.782;23.274;2024-03-25T08:30:03;94633.88;;;9.21
42119;BMP280;27783;42.782;23.274;2024-03-25T08:32:29;94636.31;;;9.64
42119;BMP280;27783;42.782;23.274;2024-03-25T08:34:54;94643.44;;;8.69
42119;BMP280;27783;42.782;23.274;2024-03-25T08:37:20;94639.13;;;9.21
42119;BMP280;27783;42.782;23.274;2024-03-25T08:39:45;94640.75;;;9.12
42119;BMP280;27783;42.782;23.274;2024-03-25T08:42:12;94639.91;;;9.18
42119;BMP280;27783;42.782;23.274;2024-03-25T08:44:37;94641.50;;;9.09
42119;BMP280;27783;42.782;23.274;2024-03-25T08:47:02;94647.56;;;8.66
42119;BMP280;27783;42.782;23.274;2024-03-25T08:49:28;94643.69;;;8.42
42119;BMP280;27783;42.782;23.274;2024-03-25T08:51:53;94645.19;;;8.43
42119;BMP280;27783;42.782;23.274;2024-03-25T08:54:19;94650.75;;;8.87
42119;BMP280;27783;42.782;23.274;2024-03-25T08:56:44;94646.94;;;8.95
42119;BMP280;27783;42.782;23.274;2024-03-25T08:59:10;94645.56;;;8.81
42119;BMP280;27783;42.782;23.274;2024-03-25T09:01:35;94643.91;;;8.57
42119;BMP280;27783;42.782;23.274;2024-03-25T09:04:01;94649.13;;;8.61
42119;BMP280;27783;42.782;23.274;2024-03-25T09:06:27;94643.69;;;8.42
42119;BMP280;27783;42.782;23.274;2024-03-25T09:08:53;94639.19;;;8.42
42119;BMP280;27783;42.782;23.274;2024-03-25T09:11:37;94637.50;;;8.62
42119;BMP280;27783;42.782;23.274;2024-03-25T09:14:02;94654.84;;;8.56
42119;BMP280;27783;42.782;23.274;2024-03-25T09:16:29;94646.38;;;8.74
42119;BMP280;27783;42.782;23.274;2024-03-25T09:18:55;94652.09;;;8.66
42119;BMP280;27783;42.782;23.274;2024-03-25T09:21:20;94651.38;;;8.66
42119;BMP280;27783;42.782;23.274;2024-03-25T09:23:47;94650.78;;;8.45
42119;BMP280;27783;42.782;23.274;2024-03-25T09:26:13;94649.06;;;8.67
42119;BMP280;27783;42.782;23.274;2024-03-25T09:28:38;94650.06;;;8.80
42119;BMP280;27783;42.782;23.274;2024-03-25T09:31:04;94657.28;;;8.73
42119;BMP280;27783;42.782;23.274;2024-03-25T09:33:31;94654.28;;;8.71
42119;BMP280;27783;42.782;23.274;2024-03-25T09:35:56;94664.59;;;8.55
42119;BMP280;27783;42.782;23.274;2024-03-25T09:38:22;94664.03;;;8.31
42119;BMP280;27783;42.782;23.274;2024-03-25T09:40:47;94655.78;;;9.08
42119;BMP280;27783;42.782;23.274;2024-03-25T09:43:27;94659.19;;;8.72
42119;BMP280;27783;42.782;23.274;2024-03-25T09:45:55;94648.19;;;8.81
42119;BMP280;27783;42.782;23.274;2024-03-25T09:48:24;94655.16;;;8.97
42119;BMP280;27783;42.782;23.274;2024-03-25T09:50:50;94649.69;;;8.82
42119;BMP280;27783;42.782;23.274;2024-03-25T09:53:17;94652.16;;;8.99
42119;BMP280;27783;42.782;23.274;2024-03-25T09:55:46;94657.66;;;8.75
42119;BMP280;27783;42.782;23.274;2024-03-25T09:58:13;94647.81;;;8.82
42119;BMP280;27783;42.782;23.274;2024-03-25T10:00:39;94648.06;;;8.94
42119;BMP280;27783;42.782;23.274;2024-03-25T10:03:04;94642.53;;;9.18
42119;BMP280;27783;42.782;23.274;2024-03-25T10:05:31;94649.56;;;8.95
42119;BMP280;27783;42.782;23.274;2024-03-25T10:07:58;94637.38;;;9.11
42119;BMP280;27783;42.782;23.274;2024-03-25T10:10:23;94641.84;;;9.43
42119;BMP280;27783;42.782;23.274;2024-03-25T10:12:49;94624.75;;;9.87
42119;BMP280;27783;42.782;23.274;2024-03-25T10:15:17;94645.00;;;9.61
42119;BMP280;27783;42.782;23.274;2024-03-25T10:17:43;94640.91;;;9.85
42119;BMP280;27783;42.782;23.274;2024-03-25T10:20:18;94647.47;;;9.42
42119;BMP280;27783;42.782;23.274;2024-03-25T10:22:44;94644.91;;;9.67
42119;BMP280;27783;42.782;23.274;2024-03-25T10:25:23;94639.41;;;9.84
42119;BMP280;27783;42.782;23.274;2024-03-25T10:28:08;94639.47;;;9.52
42119;BMP280;27783;42.782;23.274;2024-03-25T10:30:34;94642.66;;;9.66
42119;BMP280;27783;42.782;23.274;2024-03-25T10:33:01;94648.44;;;9.87
42119;BMP280;27783;42.782;23.274;2024-03-25T10:35:28;94649.78;;;9.40
42119;BMP280;27783;42.782;23.274;2024-03-25T10:37:55;94645.38;;;9.59
42119;BMP280;27783;42.782;23.274;2024-03-25T10:40:24;94648.81;;;9.56
42119;BMP280;27783;42.782;23.274;2024-03-25T10:43:01;94647.16;;;9.40
42119;BMP280;27783;42.782;23.274;2024-03-25T10:45:31;94646.63;;;9.19
42119;BMP280;27783;42.782;23.274;2024-03-25T10:48:10;94640.97;;;9.24
42119;BMP280;27783;42.782;23.274;2024-03-25T10:50:39;94649.94;;;9.26
42119;BMP280;27783;42.782;23.274;2024-03-25T10:53:07;94644.69;;;9.55
42119;BMP280;27783;42.782;23.274;2024-03-25T10:55:34;94640.69;;;11.11
42119;BMP280;27783;42.782;23.274;2024-03-25T10:58:01;94636.25;;;11.08
42119;BMP280;27783;42.782;23.274;2024-03-25T11:00:28;94640.63;;;10.95
42119;BMP280;27783;42.782;23.274;2024-03-25T11:02:54;94643.19;;;10.99
42119;BMP280;27783;42.782;23.274;2024-03-25T11:05:20;94633.34;;;11.21
42119;BMP280;27783;42.782;23.274;2024-03-25T11:07:45;94645.94;;;10.73
42119;BMP280;27783;42.782;23.274;2024-03-25T11:10:12;94647.34;;;10.55
42119;BMP280;27783;42.782;23.274;2024-03-25T11:12:41;94653.38;;;10.55
42119;BMP280;27783;42.782;23.274;2024-03-25T11:15:08;94656.78;;;10.97
42119;BMP280;27783;42.782;23.274;2024-03-25T11:17:34;94659.44;;;10.75
42119;BMP280;27783;42.782;23.274;2024-03-25T11:20:08;94652.19;;;11.01
42119;BMP280;27783;42.782;23.274;2024-03-25T11:22:34;94664.66;;;10.78
42119;BMP280;27783;42.782;23.274;2024-03-25T11:25:05;94660.00;;;10.41
42119;BMP280;27783;42.782;23.274;2024-03-25T11:27:34;94652.31;;;11.35
42119;BMP280;27783;42.782;23.274;2024-03-25T11:30:01;94650.81;;;11.34
42119;BMP280;27783;42.782;23.274;2024-03-25T11:32:27;94657.91;;;11.56
42119;BMP280;27783;42.782;23.274;2024-03-25T11:34:52;94649.50;;;11.80
42119;BMP280;27783;42.782;23.274;2024-03-25T11:37:18;94664.63;;;11.19
42119;BMP280;27783;42.782;23.274;2024-03-25T11:39:43;94657.97;;;11.72
42119;BMP280;27783;42.782;23.274;2024-03-25T11:42:08;94663.00;;;11.48
42119;BMP280;27783;42.782;23.274;2024-03-25T11:44:37;94664.19;;;11.24
42119;BMP280;27783;42.782;23.274;2024-03-25T11:47:07;94656.13;;;11.69
42119;BMP280;27783;42.782;23.274;2024-03-25T11:49:38;94675.34;;;11.13
42119;BMP280;27783;42.782;23.274;2024-03-25T11:52:06;94676.06;;;11.35
42119;BMP280;27783;42.782;23.274;2024-03-25T11:54:32;94674.06;;;10.31
42119;BMP280;27783;42.782;23.274;2024-03-25T11:56:58;94668.09;;;10.05
42119;BMP280;27783;42.782;23.274;2024-03-25T11:59:24;94673.97;;;10.38
42119;BMP280;27783;42.782;23.274;2024-03-25T12:01:50;94674.81;;;10.32
42119;BMP280;27783;42.782;23.274;2024-03-25T12:04:17;94673.09;;;10.22
42119;BMP280;27783;42.782;23.274;2024-03-25T12:06:44;94669.19;;;11.19
42119;BMP280;27783;42.782;23.274;2024-03-25T12:09:11;94660.00;;;11.46
42119;BMP280;27783;42.782;23.274;2024-03-25T12:11:55;94653.31;;;11.22
42119;BMP280;27783;42.782;23.274;2024-03-25T12:14:22;94659.78;;;11.75
42119;BMP280;27783;42.782;23.274;2024-03-25T12:16:48;94651.94;;;11.71
42119;BMP280;27783;42.782;23.274;2024-03-25T12:19:15;94654.47;;;11.40
42119;BMP280;27783;42.782;23.274;2024-03-25T12:21:41;94642.16;;;11.53
42119;BMP280;27783;42.782;23.274;2024-03-25T12:24:07;94650.63;;;10.62
42119;BMP280;27783;42.782;23.274;2024-03-25T12:26:34;94659.78;;;10.54
42119;BMP280;27783;42.782;23.274;2024-03-25T12:28:59;94653.63;;;11.05
42119;BMP280;27783;42.782;23.274;2024-03-25T12:31:25;94637.28;;;11.51
42119;BMP280;27783;42.782;23.274;2024-03-25T12:33:51;94637.41;;;11.98
42119;BMP280;27783;42.782;23.274;2024-03-25T12:36:16;94650.47;;;12.05
42119;BMP280;27783;42.782;23.274;2024-03-25T12:38:41;94638.28;;;11.92
42119;BMP280;27783;42.782;23.274;2024-03-25T12:41:09;94651.22;;;11.86
42119;BMP280;27783;42.782;23.274;2024-03-25T12:43:41;94668.47;;;11.56
42119;BMP280;27783;42.782;23.274;2024-03-25T12:46:07;94660.06;;;11.61
42119;BMP280;27783;42.782;23.274;2024-03-25T12:48:34;94669.41;;;11.66
42119;BMP280;27783;42.782;23.274;2024-03-25T12:50:59;94667.19;;;11.64
42119;BMP280;27783;42.782;23.274;2024-03-25T12:53:25;94661.03;;;11.86
42119;BMP280;27783;42.782;23.274;2024-03-25T12:55:50;94658.44;;;11.67
42119;BMP280;27783;42.782;23.274;2024-03-25T12:58:15;94658.63;;;11.76
42119;BMP280;27783;42.782;23.274;2024-03-25T13:00:41;94663.69;;;12.20
42119;BMP280;27783;42.782;23.274;2024-03-25T13:03:11;94658.28;;;12.08
42119;BMP280;27783;42.782;23.274;2024-03-25T13:05:36;94657.31;;;11.68
42119;BMP280;27783;42.782;23.274;2024-03-25T13:08:02;94652.28;;;12.08
42119;BMP280;27783;42.782;23.274;2024-03-25T13:10:30;94644.50;;;12.01
42119;BMP280;27783;42.782;23.274;2024-03-25T13:12:56;94636.22;;;12.80
42119;BMP280;27783;42.782;23.274;2024-03-25T13:15:21;94634.81;;;12.60
42119;BMP280;27783;42.782;23.274;2024-03-25T13:17:47;94642.72;;;12.45
42119;BMP280;27783;42.782;23.274;2024-03-25T13:20:13;94643.16;;;12.59
42119;BMP280;27783;42.782;23.274;2024-03-25T13:22:39;94631.00;;;12.46
42119;BMP280;27783;42.782;23.274;2024-03-25T13:25:06;94656.66;;;12.45
42119;BMP280;27783;42.782;23.274;2024-03-25T13:27:32;94647.22;;;12.63
42119;BMP280;27783;42.782;23.274;2024-03-25T13:29:57;94646.69;;;12.68
42119;BMP280;27783;42.782;23.274;2024-03-25T13:32:23;94643.97;;;12.71
42119;BMP280;27783;42.782;23.274;2024-03-25T13:34:49;94651.66;;;12.66
42119;BMP280;27783;42.782;23.274;2024-03-25T13:37:15;94657.94;;;12.41
42119;BMP280;27783;42.782;23.274;2024-03-25T13:39:41;94661.03;;;12.51
42119;BMP280;27783;42.782;23.274;2024-03-25T13:42:08;94674.22;;;12.05
42119;BMP280;27783;42.782;23.274;2024-03-25T13:44:34;94677.88;;;11.38
42119;BMP280;27783;42.782;23.274;2024-03-25T13:46:59;94702.91;;;11.08
42119;BMP280;27783;42.782;23.274;2024-03-25T13:49:25;94713.16;;;10.58
42119;BMP280;27783;42.782;23.274;2024-03-25T13:51:56;94724.09;;;9.80
42119;BMP280;27783;42.782;23.274;2024-03-25T13:54:22;94727.69;;;9.27
42119;BMP280;27783;42.782;23.274;2024-03-25T13:56:47;94737.38;;;9.33
42119;BMP280;27783;42.782;23.274;2024-03-25T13:59:13;94741.31;;;9.15
42119;BMP280;27783;42.782;23.274;2024-03-25T14:01:38;94747.53;;;8.92
42119;BMP280;27783;42.782;23.274;2024-03-25T14:04:05;94778.56;;;8.61
42119;BMP280;27783;42.782;23.274;2024-03-25T14:06:30;94775.75;;;8.39
42119;BMP280;27783;42.782;23.274;2024-03-25T14:08:58;94765.03;;;8.66
42119;BMP280;27783;42.782;23.274;2024-03-25T14:11:23;94774.63;;;8.86
42119;BMP280;27783;42.782;23.274;2024-03-25T14:13:50;94783.97;;;8.41
42119;BMP280;27783;42.782;23.274;2024-03-25T14:16:15;94790.56;;;8.06
42119;BMP280;27783;42.782;23.274;2024-03-25T14:18:41;94783.63;;;8.39
42119;BMP280;27783;42.782;23.274;2024-03-25T14:21:07;94781.06;;;8.25
42119;BMP280;27783;42.782;23.274;2024-03-25T14:23:32;94771.13;;;8.49
42119;BMP280;27783;42.782;23.274;2024-03-25T14:25:58;94761.16;;;9.20
42119;BMP280;27783;42.782;23.274;2024-03-25T14:28:24;94757.41;;;9.57
42119;BMP280;27783;42.782;23.274;2024-03-25T14:30:49;94760.97;;;9.73
42119;BMP280;27783;42.782;23.274;2024-03-25T14:33:14;94749.56;;;9.53
42119;BMP280;27783;42.782;23.274;2024-03-25T14:35:41;94743.34;;;9.70
42119;BMP280;27783;42.782;23.274;2024-03-25T14:38:07;94756.16;;;9.65
42119;BMP280;27783;42.782;23.274;2024-03-25T14:40:32;94744.66;;;10.17
42119;BMP280;27783;42.782;23.274;2024-03-25T14:42:58;94749.72;;;10.56
42119;BMP280;27783;42.782;23.274;2024-03-25T14:45:23;94752.00;;;10.29
42119;BMP280;27783;42.782;23.274;2024-03-25T14:47:48;94753.94;;;10.25
42119;BMP280;27783;42.782;23.274;2024-03-25T14:50:14;94755.41;;;10.51
42119;BMP280;27783;42.782;23.274;2024-03-25T14:52:41;94746.38;;;10.52
42119;BMP280;27783;42.782;23.274;2024-03-25T14:55:06;94763.00;;;10.49
42119;BMP280;27783;42.782;23.274;2024-03-25T14:57:36;94770.00;;;10.59
42119;BMP280;27783;42.782;23.274;2024-03-25T15:00:01;94775.06;;;10.73
42119;BMP280;27783;42.782;23.274;2024-03-25T15:02:28;94781.13;;;10.44
42119;BMP280;27783;42.782;23.274;2024-03-25T15:04:54;94789.81;;;9.83
42119;BMP280;27783;42.782;23.274;2024-03-25T15:07:19;94788.50;;;9.65
42119;BMP280;27783;42.782;23.274;2024-03-25T15:09:45;94781.72;;;10.00
42119;BMP280;27783;42.782;23.274;2024-03-25T15:12:10;94773.00;;;9.74
42119;BMP280;27783;42.782;23.274;2024-03-25T15:14:37;94794.59;;;9.91
42119;BMP280;27783;42.782;23.274;2024-03-25T15:17:02;94787.28;;;9.73
42119;BMP280;27783;42.782;23.274;2024-03-25T15:19:28;94791.22;;;9.55